Amber, Washington
Current Conditions -  °F | °C
As of 2:58 AM on Monday 20 Oct 2014 (Local Time) from KSKA Reporting Station
Clear Clear  
Wind Chill:   Ceiling: Unl
Heat Index:   Visibility: 10mi
Dew Point:   Wind: 5mph
Humidity: 95%   Direction: 60°ENE
Pressure: 29.76"   Gusts: NA
Location:  47.411°N, 117.628°W
Report Text: KSKA 200958Z AUTO 06004KT 10SM CLR 08/07 A2976 RMK AO2 SLP075 T00770069 $
Loading
Personal Weather Stations






























Interactive Weather Map
Tropical Storm Tracking
New forecast layout! Learn more

10-Day Weather Forecast

Advertisements
Track Severe Weather on mobile